Flight Track Log - Related Links

Times and Time Zones

All times are in EDT time to prevent confusion due to time zone crossing. See the FLG3477 flight status page for this flight to view local times or setup timezone preferences in your user account.

Time Position Orientation Groundspeed Altitude Reporting Facility
EDT Latitude Longitude Course Direction KTS MPH feet Rate Location/Type
Fri 10:42:07 AM 44.9000 -93.2500 269° West 160 184 2,300  Level Minneapolis TRACON
Fri 10:43:08 AM 44.8994 -93.3122 269° West 173 199 4,300 1,623 Climbing Minneapolis Center
Fri 10:44:09 AM 44.8789 -93.3886 249° West 218 251 5,600 1,854 Climbing Minneapolis Center
Fri 10:45:11 AM 44.8281 -93.4658 227° Southwest 271 312 8,100 2,468 Climbing Minneapolis Center
Fri 10:46:13 AM 44.7769 -93.5453 228° Southwest 276 318 10,700 2,032 Climbing Minneapolis Center
Fri 10:47:15 AM 44.7169 -93.6386 228° Southwest 327 376 12,300 2,032 Climbing Minneapolis Center
Fri 10:48:17 AM 44.6417 -93.7547 228° Southwest 333 383 14,900 2,129 Climbing Minneapolis Center
Fri 10:49:19 AM 44.5781 -93.8542 228° Southwest 340 391 16,700 1,839 Climbing Minneapolis Center
Fri 10:50:21 AM 44.5211 -93.9644 234° Southwest 346 398 18,700 1,597 Climbing Minneapolis Center
Fri 10:51:23 AM 44.4742 -94.0850 241° Southwest 350 403 20,000 629 Climbing Minneapolis Center
Fri 10:52:25 AM 44.4336 -94.2153 246° West 360 414 20,000  Level Minneapolis Center
Fri 10:53:27 AM 44.3917 -94.3428 245° Southwest 361 415 20,000  Level Minneapolis Center
Fri 10:54:28 AM 44.3419 -94.4958 246° West 361 415 20,000  Level Minneapolis Center
Fri 10:55:30 AM 44.3000 -94.6225 245° Southwest 361 415 20,000  Level Minneapolis Center
Fri 10:56:32 AM 44.2628 -94.7403 246° West 361 415 20,000  Level Minneapolis Center
Fri 10:57:34 AM 44.2203 -94.8661 245° Southwest 360 414 20,000  Level Minneapolis Center
Fri 10:58:36 AM 44.1714 -95.0167 246° West 360 414 20,000  Level Minneapolis Center
Fri 10:59:38 AM 44.1303 -95.1400 245° Southwest 354 407 20,000  Level Minneapolis Center
Fri 11:00:40 AM 44.0894 -95.2633 245° Southwest 353 406 20,000 -823 Level Minneapolis Center
Fri 11:01:42 AM 44.0503 -95.3833 246° West 346 398 18,300 -1,645 Descending Minneapolis Center
Fri 11:02:44 AM 44.0111 -95.4994 245° Southwest 338 389 16,600 -1,645 Descending Minneapolis Center
Fri 11:03:46 AM 43.9714 -95.6183 245° Southwest 338 389 14,900 -1,561 Descending Minneapolis Center
Fri 11:04:47 AM 43.9322 -95.7339 245° Southwest 334 384 13,400 -1,659 Descending Minneapolis Center
Fri 11:05:49 AM 43.8853 -95.8694 244° Southwest 329 379 11,500 -1,452 Descending Minneapolis Center
Fri 11:06:51 AM 43.8506 -95.9689 244° Southwest 300 345 10,400 -1,452 Descending Minneapolis Center
Fri 11:07:53 AM 43.8203 -96.0578 245° Southwest 275 316 8,500 -1,839 Descending Minneapolis Center
Fri 11:08:55 AM 43.7892 -96.1450 244° Southwest 262 302 6,600 -1,210 Descending Minneapolis Center
Fri 11:09:57 AM 43.7594 -96.2328 245° Southwest 256 295 6,000 -293 Descending Minneapolis Center
Fri 11:10:58 AM 43.7286 -96.3208 244° Southwest 255 293 6,000 -293 Level Minneapolis Center
Fri 11:12:00 AM 43.6867 -96.3847 228° Southwest 236 272 5,400 -726 Descending Minneapolis Center
Fri 11:13:02 AM 43.6469 -96.4411 226° Southwest 217 250 4,500 -435 Descending Minneapolis Center
Fri 11:14:04 AM 43.5969 -96.5131 226° Southwest 214 246 4,500 -49 Level Minneapolis Center
Fri 11:15:05 AM 43.5561 -96.5711 226° Southwest 214 246 4,400 -537 Descending Minneapolis Center
Fri 11:16:07 AM 43.5167 -96.6272 226° Southwest 212 244 3,400 -726 Descending Minneapolis Center
Fri 11:17:09 AM 43.5050 -96.6772 252° West 186 214 2,900 -537 Descending Minneapolis Center
Fri 11:18:10 AM 43.5297 -96.7056 320° Northwest 138 159 2,300 -537 Descending Minneapolis Center
Fri 11:19:12 AM 43.5631 -96.7289 333° Northwest 129 148 1,800 -484 Descending Minneapolis Center

Login

Don't have an account? Register now (free) for customized features, flight alerts, and more!